createdAt,value
2019-01-20T00:02:08.900Z,-7.60
2019-01-20T00:04:36.338Z,-7.70
2019-01-20T00:07:03.064Z,-7.70
2019-01-20T00:09:30.576Z,-7.70
2019-01-20T00:11:58.005Z,-7.70
2019-01-20T00:14:24.706Z,-7.70
2019-01-20T00:16:51.481Z,-7.50
2019-01-20T00:19:18.177Z,-7.60
2019-01-20T00:21:44.885Z,-7.60
2019-01-20T00:24:12.413Z,-7.60
2019-01-20T00:26:39.888Z,-7.60
2019-01-20T00:29:07.003Z,-7.60
2019-01-20T00:31:33.346Z,-7.70
2019-01-20T00:34:00.101Z,-7.60
2019-01-20T00:36:26.870Z,-7.60
2019-01-20T00:38:54.288Z,-7.70
2019-01-20T00:41:24.366Z,-7.70
2019-01-20T00:43:49.258Z,-7.70
2019-01-20T00:46:15.940Z,-7.70
2019-01-20T00:48:42.633Z,-7.70
2019-01-20T00:51:09.409Z,-7.80
2019-01-20T00:53:36.092Z,-7.80
2019-01-20T00:56:03.594Z,-7.90
2019-01-20T00:58:30.367Z,-7.90
2019-01-20T01:00:57.071Z,-7.90
2019-01-20T01:03:23.786Z,-7.90
2019-01-20T01:05:50.528Z,-8.00
2019-01-20T01:08:17.206Z,-8.00
2019-01-20T01:10:43.998Z,-8.00
2019-01-20T01:13:11.585Z,-8.00
2019-01-20T01:15:38.290Z,-8.10
2019-01-20T01:18:05.164Z,-8.00
2019-01-20T01:20:31.901Z,-8.10
2019-01-20T01:22:59.346Z,-8.30
2019-01-20T01:25:26.831Z,-8.40
2019-01-20T01:27:53.516Z,-8.40
2019-01-20T01:30:20.340Z,-8.30
2019-01-20T01:32:47.079Z,-8.40
2019-01-20T01:35:14.024Z,-8.40
2019-01-20T01:37:40.733Z,-8.40
2019-01-20T01:40:07.461Z,-8.50
2019-01-20T01:42:35.814Z,-8.50
2019-01-20T01:45:03.343Z,-8.50
2019-01-20T01:47:30.050Z,-8.50
2019-01-20T01:49:56.737Z,-8.50
2019-01-20T01:52:23.451Z,-8.50
2019-01-20T01:54:50.235Z,-8.50
2019-01-20T01:57:17.683Z,-8.70
2019-01-20T01:59:45.096Z,-8.80
2019-01-20T02:02:11.933Z,-8.80
2019-01-20T02:04:38.664Z,-8.90
2019-01-20T02:07:05.379Z,-8.90
2019-01-20T02:09:32.856Z,-8.90
2019-01-20T02:11:59.529Z,-8.90
2019-01-20T02:14:26.256Z,-8.90
2019-01-20T02:16:52.958Z,-9.00
2019-01-20T02:19:19.684Z,-9.10
2019-01-20T02:21:47.177Z,-9.20
2019-01-20T02:24:13.947Z,-9.20
2019-01-20T02:26:40.763Z,-9.20
2019-01-20T02:29:07.455Z,-9.20
2019-01-20T02:31:34.150Z,-9.20
2019-01-20T02:34:00.911Z,-9.30
2019-01-20T02:36:27.596Z,-9.40
2019-01-20T02:38:55.032Z,-9.50
2019-01-20T02:41:21.774Z,-9.50
2019-01-20T02:43:48.491Z,-9.50
2019-01-20T02:46:15.159Z,-9.50
2019-01-20T02:48:41.904Z,-9.60
2019-01-20T02:51:09.324Z,-9.70
2019-01-20T02:53:36.014Z,-9.70
2019-01-20T02:56:03.522Z,-9.80
2019-01-20T02:58:30.230Z,-9.90
2019-01-20T03:00:56.884Z,-9.90
2019-01-20T03:03:23.593Z,-9.80
2019-01-20T03:05:50.250Z,-9.90
2019-01-20T03:08:16.998Z,-10.00
2019-01-20T03:10:43.696Z,-9.90
2019-01-20T03:13:10.418Z,-9.90
2019-01-20T03:15:37.950Z,-9.90
2019-01-20T03:18:04.674Z,-9.90
2019-01-20T03:20:31.408Z,-9.90
2019-01-20T03:22:58.140Z,-9.90
2019-01-20T03:25:24.835Z,-10.00
2019-01-20T03:27:51.630Z,-10.00
2019-01-20T03:30:18.441Z,-10.00
2019-01-20T03:32:45.909Z,-10.00
2019-01-20T03:35:12.723Z,-10.10
2019-01-20T03:37:39.497Z,-10.00
2019-01-20T03:40:06.972Z,-9.90
2019-01-20T03:42:36.692Z,-10.00
2019-01-20T03:45:03.419Z,-10.10
2019-01-20T03:47:30.113Z,-10.00
2019-01-20T03:49:56.843Z,-10.00
2019-01-20T03:52:23.543Z,-10.00
2019-01-20T03:54:50.295Z,-10.10
2019-01-20T03:57:17.053Z,-10.10
2019-01-20T03:59:43.767Z,-10.10
2019-01-20T04:02:10.455Z,-10.10
2019-01-20T04:04:37.163Z,-10.10
2019-01-20T04:07:03.894Z,-10.20
2019-01-20T04:09:31.355Z,-10.20
2019-01-20T04:11:58.095Z,-10.20
2019-01-20T04:14:25.565Z,-10.20
2019-01-20T04:16:52.252Z,-10.30
2019-01-20T04:19:18.962Z,-10.20
2019-01-20T04:21:45.673Z,-10.20
2019-01-20T04:24:12.457Z,-10.30
2019-01-20T04:26:39.125Z,-10.20
2019-01-20T04:29:06.557Z,-10.20
2019-01-20T04:31:34.027Z,-10.10
2019-01-20T04:34:01.515Z,-10.20
2019-01-20T04:36:28.264Z,-10.20
2019-01-20T04:38:55.028Z,-10.20
2019-01-20T04:41:21.717Z,-10.20
2019-01-20T04:43:48.446Z,-10.20
2019-01-20T04:46:15.851Z,-10.20
2019-01-20T04:48:42.581Z,-10.20
2019-01-20T04:51:09.404Z,-10.20
2019-01-20T04:53:36.235Z,-10.10
2019-01-20T04:56:03.700Z,-10.20
2019-01-20T04:58:30.497Z,-10.20
2019-01-20T05:00:57.197Z,-10.20
2019-01-20T05:03:24.614Z,-10.30
2019-01-20T05:05:51.396Z,-10.30
2019-01-20T05:08:18.076Z,-10.30
2019-01-20T05:10:44.758Z,-10.40
2019-01-20T05:13:11.487Z,-10.40
2019-01-20T05:15:38.923Z,-10.60
2019-01-20T05:18:06.415Z,-10.50
2019-01-20T05:20:33.164Z,-10.60
2019-01-20T05:23:00.663Z,-10.50
2019-01-20T05:25:27.368Z,-10.50
2019-01-20T05:27:54.057Z,-10.60
2019-01-20T05:30:21.549Z,-10.70
2019-01-20T05:32:48.341Z,-10.70
2019-01-20T05:35:15.054Z,-10.80
2019-01-20T05:37:41.769Z,-10.80
2019-01-20T05:40:09.371Z,-10.90
2019-01-20T05:42:45.601Z,-11.00
2019-01-20T05:45:04.304Z,-11.00
2019-01-20T05:47:31.099Z,-11.00
2019-01-20T05:49:57.780Z,-11.00
2019-01-20T05:52:24.480Z,-11.00
2019-01-20T05:54:51.230Z,-11.10
2019-01-20T05:57:17.909Z,-11.10
2019-01-20T05:59:44.596Z,-11.10
2019-01-20T06:02:11.336Z,-11.20
2019-01-20T06:04:38.002Z,-11.20
2019-01-20T06:07:04.736Z,-11.20
2019-01-20T06:09:31.411Z,-11.20
2019-01-20T06:11:58.865Z,-11.10
2019-01-20T06:14:25.618Z,-11.10
2019-01-20T06:16:52.296Z,-11.10
2019-01-20T06:19:18.964Z,-11.10
2019-01-20T06:21:45.848Z,-10.90
2019-01-20T06:24:12.578Z,-10.80
2019-01-20T06:26:40.028Z,-10.70
2019-01-20T06:29:06.807Z,-10.70
2019-01-20T06:31:33.479Z,-10.80
2019-01-20T06:34:00.160Z,-10.80
2019-01-20T06:36:27.746Z,-11.00
2019-01-20T06:38:54.436Z,-11.00
2019-01-20T06:41:21.145Z,-10.90
2019-01-20T06:43:47.882Z,-11.00
2019-01-20T06:46:15.419Z,-11.00
2019-01-20T06:48:42.075Z,-11.00
2019-01-20T06:51:08.941Z,-11.10
2019-01-20T06:53:35.638Z,-11.00
2019-01-20T06:56:02.380Z,-10.90
2019-01-20T06:58:29.042Z,-10.90
2019-01-20T07:00:55.713Z,-10.90
2019-01-20T07:03:23.170Z,-10.90
2019-01-20T07:05:49.841Z,-11.00
2019-01-20T07:08:16.545Z,-10.90
2019-01-20T07:10:43.233Z,-10.90
2019-01-20T07:13:11.385Z,-11.00
2019-01-20T07:15:37.596Z,-11.10
2019-01-20T07:18:04.344Z,-11.10
2019-01-20T07:20:31.785Z,-11.20
2019-01-20T07:22:58.506Z,-11.20
2019-01-20T07:25:25.982Z,-11.20
2019-01-20T07:27:52.648Z,-11.20
2019-01-20T07:30:19.574Z,-11.30
2019-01-20T07:32:46.325Z,-11.10
2019-01-20T07:35:13.793Z,-11.20
2019-01-20T07:37:41.353Z,-11.30
2019-01-20T07:40:08.834Z,-11.20
2019-01-20T07:42:35.559Z,-11.30
2019-01-20T07:45:02.381Z,-11.20
2019-01-20T07:47:29.148Z,-11.20
2019-01-20T07:49:55.840Z,-11.10
2019-01-20T07:52:22.664Z,-11.10
2019-01-20T07:54:49.355Z,-11.10
2019-01-20T07:57:16.788Z,-11.10
2019-01-20T07:59:43.634Z,-11.10
2019-01-20T08:02:10.310Z,-11.00
2019-01-20T08:04:36.978Z,-11.00
2019-01-20T08:07:03.713Z,-10.90
2019-01-20T08:09:30.405Z,-10.90
2019-01-20T08:11:57.972Z,-10.90
2019-01-20T08:14:24.690Z,-10.90
2019-01-20T08:16:52.106Z,-10.80
2019-01-20T08:19:18.914Z,-10.80
2019-01-20T08:21:46.344Z,-10.70
2019-01-20T08:24:13.020Z,-10.70
2019-01-20T08:26:39.875Z,-10.70
2019-01-20T08:29:06.581Z,-10.70
2019-01-20T08:31:33.296Z,-10.70
2019-01-20T08:34:00.047Z,-10.60
2019-01-20T08:36:27.507Z,-10.40
2019-01-20T08:38:54.205Z,-10.50
2019-01-20T08:41:20.959Z,-10.40
2019-01-20T08:43:47.665Z,-10.50
2019-01-20T08:46:14.488Z,-10.60
2019-01-20T08:48:41.930Z,-10.50
2019-01-20T08:51:08.625Z,-10.50
2019-01-20T08:53:35.338Z,-10.40
2019-01-20T08:56:02.039Z,-10.40
2019-01-20T08:58:29.455Z,-10.30
2019-01-20T09:00:56.169Z,-10.30
2019-01-20T09:03:22.898Z,-10.20
2019-01-20T09:05:49.587Z,-10.20
2019-01-20T09:08:16.295Z,-10.30
2019-01-20T09:10:43.018Z,-10.30
2019-01-20T09:13:10.538Z,-10.20
2019-01-20T09:15:37.290Z,-10.20
2019-01-20T09:18:04.733Z,-10.00
2019-01-20T09:20:31.438Z,-10.00
2019-01-20T09:22:58.180Z,-9.90
2019-01-20T09:25:24.941Z,-9.80
2019-01-20T09:27:52.469Z,-9.60
2019-01-20T09:30:19.191Z,-9.60
2019-01-20T09:32:46.672Z,-9.40
2019-01-20T09:35:13.475Z,-9.40
2019-01-20T09:37:40.273Z,-9.30
2019-01-20T09:40:06.999Z,-9.20
2019-01-20T09:42:33.678Z,-9.20
2019-01-20T09:45:01.229Z,-8.90
2019-01-20T09:47:27.931Z,-9.00
2019-01-20T09:49:54.600Z,-8.80
2019-01-20T09:52:21.712Z,-8.80
2019-01-20T09:54:48.403Z,-8.80
2019-01-20T09:57:15.078Z,-8.70
2019-01-20T09:59:42.551Z,-8.60
2019-01-20T10:02:09.274Z,-8.60
2019-01-20T10:04:35.964Z,-8.40
2019-01-20T10:07:03.501Z,-7.70
2019-01-20T10:09:30.193Z,-7.70
2019-01-20T10:11:56.874Z,-7.50
2019-01-20T10:14:23.614Z,-7.40
2019-01-20T10:16:50.616Z,-7.40
2019-01-20T10:19:17.340Z,-7.30
2019-01-20T10:21:44.103Z,-7.10
2019-01-20T10:24:10.990Z,-7.20
2019-01-20T10:26:37.941Z,-7.10
2019-01-20T10:29:04.668Z,-7.00
2019-01-20T10:31:31.325Z,-7.00
2019-01-20T10:33:58.097Z,-7.10
2019-01-20T10:36:25.551Z,-7.10
2019-01-20T10:38:52.208Z,-7.20
2019-01-20T10:41:19.786Z,-7.20
2019-01-20T10:43:46.527Z,-7.20
2019-01-20T10:46:14.032Z,-7.10
2019-01-20T10:48:41.463Z,-7.20
2019-01-20T10:51:08.164Z,-7.20
2019-01-20T10:53:35.708Z,-7.10
2019-01-20T10:56:02.451Z,-7.10
2019-01-20T10:58:29.146Z,-7.20
2019-01-20T11:00:55.882Z,-7.30
2019-01-20T11:03:23.363Z,-7.20
2019-01-20T11:05:50.055Z,-7.20
2019-01-20T11:08:17.578Z,-7.40
2019-01-20T11:10:44.366Z,-7.40
2019-01-20T11:13:11.896Z,-7.30
2019-01-20T11:15:39.411Z,-7.20
2019-01-20T11:18:06.538Z,-7.20
2019-01-20T11:20:33.287Z,-7.10
2019-01-20T11:23:00.000Z,-7.10
2019-01-20T11:25:27.487Z,-6.90
2019-01-20T11:27:54.162Z,-6.90
2019-01-20T11:30:21.729Z,-6.80
2019-01-20T11:32:48.459Z,-6.80
2019-01-20T11:35:15.972Z,-6.60
2019-01-20T11:37:42.837Z,-6.60
2019-01-20T11:40:09.594Z,-6.50
2019-01-20T11:42:36.282Z,-6.50
2019-01-20T11:45:03.782Z,-6.40
2019-01-20T11:47:42.033Z,-6.40
2019-01-20T11:50:06.346Z,-6.40
2019-01-20T11:52:35.294Z,-6.30
2019-01-20T11:55:02.137Z,-6.10
2019-01-20T11:57:29.392Z,-6.10
2019-01-20T11:59:56.154Z,-6.10
2019-01-20T12:02:22.857Z,-6.00
2019-01-20T12:04:50.379Z,-5.80
2019-01-20T12:07:17.068Z,-5.80
2019-01-20T12:09:43.774Z,-5.80
2019-01-20T12:12:10.506Z,-5.70
2019-01-20T12:14:37.255Z,-5.80
2019-01-20T12:17:03.935Z,-5.80
2019-01-20T12:19:30.677Z,-5.70
2019-01-20T12:21:57.375Z,-5.70
2019-01-20T12:24:24.095Z,-5.70
2019-01-20T12:26:50.853Z,-5.60
2019-01-20T12:29:17.569Z,-5.70
2019-01-20T12:31:44.428Z,-5.60
2019-01-20T12:34:11.115Z,-5.60
2019-01-20T12:36:37.894Z,-5.50
2019-01-20T12:39:04.710Z,-5.50
2019-01-20T12:41:32.153Z,-5.40
2019-01-20T12:43:59.672Z,-5.40
2019-01-20T12:46:26.354Z,-5.50
2019-01-20T12:48:53.017Z,-5.50
2019-01-20T12:51:20.531Z,-5.50
2019-01-20T12:53:47.215Z,-5.50
2019-01-20T12:56:14.662Z,-5.70
2019-01-20T12:58:42.190Z,-5.70
2019-01-20T13:01:08.973Z,-5.80
2019-01-20T13:03:35.744Z,-5.90
2019-01-20T13:06:02.519Z,-5.90
2019-01-20T13:08:29.263Z,-6.00
2019-01-20T13:10:56.426Z,-6.00
2019-01-20T13:13:23.687Z,-6.10
2019-01-20T13:15:50.693Z,-6.10
2019-01-20T13:18:18.144Z,-6.30
2019-01-20T13:20:44.828Z,-6.30
2019-01-20T13:23:12.313Z,-6.40
2019-01-20T13:25:39.012Z,-6.40
2019-01-20T13:28:06.098Z,-6.50
2019-01-20T13:30:33.254Z,-6.60
2019-01-20T13:33:00.317Z,-6.70
2019-01-20T13:35:27.383Z,-6.80
2019-01-20T13:38:03.199Z,-6.80
2019-01-20T13:40:34.209Z,-6.90
2019-01-20T13:43:02.491Z,-7.00
2019-01-20T13:45:29.265Z,-7.00
2019-01-20T13:47:56.089Z,-7.10
2019-01-20T13:50:23.293Z,-7.20
2019-01-20T13:52:50.855Z,-7.20
2019-01-20T13:55:17.579Z,-7.30
2019-01-20T13:57:44.357Z,-7.30
2019-01-20T14:00:14.777Z,-7.40
2019-01-20T14:02:41.512Z,-7.40
2019-01-20T14:05:08.257Z,-7.50
2019-01-20T14:07:34.995Z,-7.60
2019-01-20T14:10:01.732Z,-7.60
2019-01-20T14:12:28.439Z,-7.70
2019-01-20T14:14:55.136Z,-7.90
2019-01-20T14:17:22.558Z,-8.10
2019-01-20T14:19:49.271Z,-8.10
2019-01-20T14:22:15.973Z,-8.10
2019-01-20T14:24:43.470Z,-8.20
2019-01-20T14:27:10.262Z,-8.30
2019-01-20T14:29:36.927Z,-8.30
2019-01-20T14:32:04.393Z,-8.50
2019-01-20T14:34:31.165Z,-8.50
2019-01-20T14:36:57.862Z,-8.60
2019-01-20T14:39:25.356Z,-8.80
2019-01-20T14:41:52.039Z,-8.80
2019-01-20T14:44:19.507Z,-9.00
2019-01-20T14:46:47.000Z,-9.10
2019-01-20T14:49:13.678Z,-9.10
2019-01-20T14:51:40.400Z,-9.20
2019-01-20T14:54:07.097Z,-9.30
2019-01-20T14:56:33.774Z,-9.40
2019-01-20T14:59:00.575Z,-9.40
2019-01-20T15:01:27.988Z,-9.60
2019-01-20T15:03:54.657Z,-9.70
2019-01-20T15:06:21.440Z,-9.70
2019-01-20T15:08:48.130Z,-9.70
2019-01-20T15:11:14.858Z,-9.80
2019-01-20T15:13:41.671Z,-9.90
2019-01-20T15:16:08.369Z,-9.90
2019-01-20T15:18:35.785Z,-10.00
2019-01-20T15:21:02.495Z,-10.10
2019-01-20T15:23:29.249Z,-10.10
2019-01-20T15:25:55.910Z,-10.20
2019-01-20T15:28:22.658Z,-10.20
2019-01-20T15:30:49.336Z,-10.30
2019-01-20T15:33:17.024Z,-10.40
2019-01-20T15:35:43.662Z,-10.40
2019-01-20T15:38:10.379Z,-10.40
2019-01-20T15:40:38.252Z,-10.50
2019-01-20T15:43:06.326Z,-10.40
2019-01-20T15:45:33.334Z,-10.40
2019-01-20T15:48:00.064Z,-10.40
2019-01-20T15:50:26.813Z,-10.40
2019-01-20T15:52:53.521Z,-10.40
2019-01-20T15:55:20.384Z,-10.40
2019-01-20T15:57:47.111Z,-10.40
2019-01-20T16:00:13.933Z,-10.40
2019-01-20T16:02:40.705Z,-10.40
2019-01-20T16:05:07.423Z,-10.50
2019-01-20T16:07:36.185Z,-10.50
2019-01-20T16:10:02.962Z,-10.60
2019-01-20T16:12:29.626Z,-10.60
2019-01-20T16:14:56.297Z,-10.60
2019-01-20T16:17:23.258Z,-10.70
2019-01-20T16:19:50.901Z,-10.70
2019-01-20T16:22:17.619Z,-10.80
2019-01-20T16:24:45.176Z,-10.90
2019-01-20T16:27:11.920Z,-10.90
2019-01-20T16:29:39.335Z,-10.90
2019-01-20T16:32:06.222Z,-11.00
2019-01-20T16:34:33.969Z,-11.00
2019-01-20T16:37:00.698Z,-11.00
2019-01-20T16:39:27.480Z,-11.00
2019-01-20T16:42:07.960Z,-11.00
2019-01-20T16:47:22.535Z,-11.00
2019-01-20T16:49:49.198Z,-11.10
2019-01-20T16:52:16.013Z,-11.00
2019-01-20T16:54:42.667Z,-11.00
2019-01-20T16:57:09.403Z,-11.10
2019-01-20T16:59:36.355Z,-11.20
2019-01-20T17:02:03.111Z,-11.20
2019-01-20T17:04:30.620Z,-11.30
2019-01-20T17:06:57.408Z,-11.30
2019-01-20T17:09:24.887Z,-11.40
2019-01-20T17:11:52.331Z,-11.40
2019-01-20T17:14:19.038Z,-11.40
2019-01-20T17:16:45.780Z,-11.40
2019-01-20T17:19:17.573Z,-11.40
2019-01-20T17:21:39.418Z,-11.40
2019-01-20T17:24:06.153Z,-11.40
2019-01-20T17:26:34.362Z,-11.50
2019-01-20T17:28:59.670Z,-11.50
2019-01-20T17:31:26.363Z,-11.50
2019-01-20T17:33:53.813Z,-11.50
2019-01-20T17:36:20.588Z,-11.60
2019-01-20T17:38:47.322Z,-11.50
2019-01-20T17:41:14.123Z,-11.50
2019-01-20T17:43:40.972Z,-11.50
2019-01-20T17:46:07.679Z,-11.50
2019-01-20T17:48:34.363Z,-11.60
2019-01-20T17:51:01.150Z,-11.60
2019-01-20T17:53:28.545Z,-11.60
2019-01-20T17:55:55.256Z,-11.60
2019-01-20T17:58:21.966Z,-11.60
2019-01-20T18:00:48.745Z,-11.50
2019-01-20T18:03:15.466Z,-11.50
2019-01-20T18:05:42.953Z,-11.40
2019-01-20T18:08:09.724Z,-11.40
2019-01-20T18:10:36.824Z,-11.50
2019-01-20T18:13:04.221Z,-11.50
2019-01-20T18:15:31.049Z,-11.50
2019-01-20T18:17:58.788Z,-11.50
2019-01-20T18:20:30.443Z,-11.50
2019-01-20T18:22:57.178Z,-11.50
2019-01-20T18:25:23.908Z,-11.60
2019-01-20T18:27:51.431Z,-11.50
2019-01-20T18:30:19.235Z,-11.60
2019-01-20T18:32:46.646Z,-11.50
2019-01-20T18:35:13.382Z,-11.60
2019-01-20T18:37:40.085Z,-11.50
2019-01-20T18:40:09.572Z,-11.50
2019-01-20T18:42:37.201Z,-11.50
2019-01-20T18:45:04.001Z,-11.50
2019-01-20T18:47:30.707Z,-11.50
2019-01-20T18:49:58.206Z,-11.60
2019-01-20T18:52:24.908Z,-11.60
2019-01-20T18:54:52.340Z,-11.60
2019-01-20T18:57:19.143Z,-11.70
2019-01-20T18:59:45.867Z,-11.60
2019-01-20T19:02:12.636Z,-11.70
2019-01-20T19:04:39.379Z,-11.60
2019-01-20T19:07:06.101Z,-11.60
2019-01-20T19:09:32.772Z,-11.60
2019-01-20T19:11:59.892Z,-11.70
2019-01-20T19:14:26.624Z,-11.70
2019-01-20T19:16:53.318Z,-11.80
2019-01-20T19:19:20.044Z,-11.80
2019-01-20T19:21:46.698Z,-11.80
2019-01-20T19:24:13.383Z,-11.80
2019-01-20T19:26:40.131Z,-11.80
2019-01-20T19:29:06.898Z,-11.90
2019-01-20T19:31:33.733Z,-11.90
2019-01-20T19:34:00.494Z,-11.90
2019-01-20T19:36:27.269Z,-12.00
2019-01-20T19:38:54.003Z,-12.00
2019-01-20T19:41:21.002Z,-12.10
2019-01-20T19:43:47.890Z,-12.10
2019-01-20T19:46:16.439Z,-12.20
2019-01-20T19:48:42.193Z,-12.20
2019-01-20T19:51:09.692Z,-12.20
2019-01-20T19:53:37.224Z,-12.30
2019-01-20T19:56:04.277Z,-12.20
2019-01-20T19:58:31.124Z,-12.20
2019-01-20T20:00:57.883Z,-12.30
2019-01-20T20:03:24.613Z,-12.40
2019-01-20T20:05:51.355Z,-12.50
2019-01-20T20:08:18.061Z,-12.50
2019-01-20T20:10:45.581Z,-12.60
2019-01-20T20:13:13.453Z,-12.50
2019-01-20T20:15:40.240Z,-12.60
2019-01-20T20:18:07.093Z,-12.50
2019-01-20T20:20:33.807Z,-12.50
2019-01-20T20:23:01.293Z,-12.50
2019-01-20T20:25:28.036Z,-12.50
2019-01-20T20:27:54.737Z,-12.50
2019-01-20T20:30:23.981Z,-12.60
2019-01-20T20:32:50.724Z,-12.60
2019-01-20T20:35:17.975Z,-12.60
2019-01-20T20:37:45.124Z,-12.60
2019-01-20T20:40:12.601Z,-12.60
2019-01-20T20:42:40.891Z,-12.60
2019-01-20T20:45:11.102Z,-12.60
2019-01-20T20:47:38.666Z,-12.60
2019-01-20T20:50:07.125Z,-12.60
2019-01-20T20:52:34.989Z,-12.60
2019-01-20T20:55:02.724Z,-12.60
2019-01-20T20:57:29.799Z,-12.60
2019-01-20T20:59:56.746Z,-12.60
2019-01-20T21:02:23.691Z,-12.60
2019-01-20T21:04:50.531Z,-12.60
2019-01-20T21:07:17.373Z,-12.70
2019-01-20T21:09:44.076Z,-12.70
2019-01-20T21:12:11.674Z,-12.60
2019-01-20T21:14:38.468Z,-12.60
2019-01-20T21:17:05.464Z,-12.60
2019-01-20T21:19:32.412Z,-12.60
2019-01-20T21:21:59.146Z,-12.60
2019-01-20T21:24:26.099Z,-12.70
2019-01-20T21:26:54.166Z,-12.80
2019-01-20T21:29:20.903Z,-12.80
2019-01-20T21:31:47.747Z,-12.80
2019-01-20T21:37:05.745Z,-12.80
2019-01-20T21:39:32.412Z,-12.70
2019-01-20T21:41:59.856Z,-12.70
2019-01-20T21:44:26.752Z,-12.70
2019-01-20T21:46:53.642Z,-12.60
2019-01-20T21:49:21.351Z,-12.80
2019-01-20T21:51:48.193Z,-12.80
2019-01-20T21:54:15.139Z,-12.80
2019-01-20T21:56:41.985Z,-12.80
2019-01-20T21:59:08.729Z,-12.70
2019-01-20T22:01:35.667Z,-12.60
2019-01-20T22:04:02.614Z,-12.60
2019-01-20T22:06:29.560Z,-12.50
2019-01-20T22:08:56.401Z,-12.50
2019-01-20T22:11:23.138Z,-12.50
2019-01-20T22:13:49.985Z,-12.50
2019-01-20T22:16:17.547Z,-12.50
2019-01-20T22:18:44.270Z,-12.40
2019-01-20T22:21:11.128Z,-12.40
2019-01-20T22:23:37.865Z,-12.40
2019-01-20T22:26:04.713Z,-12.50
2019-01-20T22:28:31.452Z,-12.50
2019-01-20T22:30:58.292Z,-12.50
2019-01-20T22:33:25.240Z,-12.60
2019-01-20T22:35:51.982Z,-12.70
2019-01-20T22:38:18.713Z,-12.70
2019-01-20T22:40:45.570Z,-12.70
2019-01-20T22:43:12.609Z,-12.80
2019-01-20T22:45:39.658Z,-12.90
2019-01-20T22:48:06.497Z,-12.90
2019-01-20T22:50:33.241Z,-12.90
2019-01-20T22:53:00.084Z,-12.90
2019-01-20T22:55:27.131Z,-13.10
2019-01-20T22:57:53.864Z,-13.00
2019-01-20T23:00:47.136Z,-13.00
2019-01-20T23:03:14.389Z,-12.90
2019-01-20T23:05:41.536Z,-12.90
2019-01-20T23:08:08.268Z,-12.90
2019-01-20T23:10:37.803Z,-12.90
2019-01-20T23:13:07.282Z,-13.00
2019-01-20T23:15:34.028Z,-13.00
2019-01-20T23:18:00.823Z,-13.10
2019-01-20T23:20:28.332Z,-13.10
2019-01-20T23:22:55.143Z,-13.10
2019-01-20T23:25:22.864Z,-13.20
2019-01-20T23:27:50.412Z,-13.20
2019-01-20T23:30:17.335Z,-13.20
2019-01-20T23:32:44.281Z,-13.20
2019-01-20T23:35:11.228Z,-13.30
2019-01-20T23:37:38.044Z,-13.30
2019-01-20T23:40:10.520Z,-13.30
2019-01-20T23:42:38.071Z,-13.30
2019-01-20T23:45:05.772Z,-13.30
2019-01-20T23:47:33.633Z,-13.30
2019-01-20T23:50:00.477Z,-13.30
2019-01-20T23:52:27.317Z,-13.30
2019-01-20T23:54:54.368Z,-13.40
2019-01-20T23:57:21.311Z,-13.30
2019-01-20T23:59:48.154Z,-13.40
